PWSweather.com
Personal Weather Stations
Station Observations
KPAEXPOR2
Wellington Estates, Export, PA 15632

Wellington EstatesExport, PA 15632

Lat: 40.446, Lon: -79.592

Elevation: 1286

Station Type: PWS1000-TD

http://www.westmorelandweather.com

Latest ConditionsUpdated 4:30:03 PM EST Friday, Dec 19, 2014
Currently Today's Max Today's Min Today's Average
Temperature 29.3°F-1.5°C 30.0°F-1.1°C 25.7°F-3.5°C 27.1°F-2.7°C
Dew Point 16.4°F-8.7°C 25.8°F-3.4°C 16.1°F-8.8°C 21.5°F-5.8°C
Winds 2.4 mph SSW3.9 kmh SSW 6.9 mph SSW11.1 kmh SSW - 3.1 mph 5.0 kmh
Wind Gusts 3.8 mph6.1 kmh 11.4 mph18.3 kmh - -
Humidity 58% 93% 57% 80%
Pressure 30.22 in1023.4 mb 30.22 in1023.4 mb 30.14 in1020.7 mb -
Hour Temp Dew Point Humidity Winds Wind Gusts Pressure Precip Precip Rate Daily Precip Total
04:30 PM 29.3°F-1.5°C 16.4°F-8.7°C 58% 2.4 mph SSW3.9 kmh SSW 3.8 mph6.1 kmh 30.22 in1023.4 mb 0.00 in0.0 mm 0.00 in/hr0.0 mm/hr 0.00 in0.0 mm
04:15 PM 29.5°F-1.4°C 16.1°F-8.8°C 57% 3.9 mph S6.3 kmh S 6.9 mph11.1 kmh 30.21 in1023.0 mb 0.00 in0.0 mm 0.00 in/hr0.0 mm/hr 0.00 in0.0 mm
04:00 PM 29.8°F-1.2°C 17.3°F-8.2°C 59% 3.1 mph S5.0 kmh S 5.4 mph8.7 kmh 30.21 in1023.0 mb 0.00 in0.0 mm 0.00 in/hr0.0 mm/hr 0.00 in0.0 mm
03:45 PM 29.8°F-1.2°C 17.3°F-8.2°C 59% 2.3 mph SSE3.7 kmh SSE 3.8 mph6.1 kmh 30.20 in1022.7 mb 0.00 in0.0 mm 0.00 in/hr0.0 mm/hr 0.00 in0.0 mm
03:30 PM 30.0°F-1.1°C 17.4°F-8.1°C 59% 2.8 mph SSE4.5 kmh SSE 3.8 mph6.1 kmh 30.20 in1022.7 mb 0.00 in0.0 mm 0.00 in/hr0.0 mm/hr 0.00 in0.0 mm
03:15 PM 30.0°F-1.1°C 18.2°F-7.7°C 61% 2.9 mph SW4.7 kmh SW 3.8 mph6.1 kmh 30.20 in1022.7 mb 0.00 in0.0 mm 0.00 in/hr0.0 mm/hr 0.00 in0.0 mm
03:00 PM 29.8°F-1.2°C 18.8°F-7.3°C 63% 3.9 mph S6.3 kmh S 6.9 mph11.1 kmh 30.21 in1023.0 mb 0.00 in0.0 mm 0.00 in/hr0.0 mm/hr 0.00 in0.0 mm
02:45 PM 29.8°F-1.2°C 19.9°F-6.7°C 66% 3.1 mph SSE5.0 kmh SSE 4.5 mph7.2 kmh 30.19 in1022.4 mb 0.00 in0.0 mm 0.00 in/hr0.0 mm/hr 0.00 in0.0 mm
02:30 PM 29.8°F-1.2°C 20.2°F-6.6°C 67% 2.2 mph S3.5 kmh S 3.8 mph6.1 kmh 30.19 in1022.4 mb 0.00 in0.0 mm 0.00 in/hr0.0 mm/hr 0.00 in0.0 mm
02:15 PM 30.0°F-1.1°C 21.1°F-6.1°C 69% 2.6 mph SE4.2 kmh SE 5.4 mph8.7 kmh 30.19 in1022.4 mb 0.00 in0.0 mm 0.00 in/hr0.0 mm/hr 0.00 in0.0 mm
02:00 PM 29.5°F-1.4°C 20.2°F-6.6°C 68% 2.7 mph SW4.3 kmh SW 3.8 mph6.1 kmh 30.19 in1022.4 mb 0.00 in0.0 mm 0.00 in/hr0.0 mm/hr 0.00 in0.0 mm
01:45 PM 29.5°F-1.4°C 20.9°F-6.2°C 70% 2.4 mph W3.9 kmh W 6.0 mph9.7 kmh 30.18 in1022.0 mb 0.00 in0.0 mm 0.00 in/hr0.0 mm/hr 0.00 in0.0 mm
01:30 PM 29.1°F-1.6°C 19.9°F-6.7°C 68% 2.9 mph WSW4.7 kmh WSW 6.0 mph9.7 kmh 30.18 in1022.0 mb 0.00 in0.0 mm 0.00 in/hr0.0 mm/hr 0.00 in0.0 mm
01:15 PM 29.1°F-1.6°C 19.9°F-6.7°C 68% 4.2 mph SSW6.8 kmh SSW 6.0 mph9.7 kmh 30.19 in1022.4 mb 0.00 in0.0 mm 0.00 in/hr0.0 mm/hr 0.00 in0.0 mm
01:00 PM 29.3°F-1.5°C 21.4°F-5.9°C 72% 4.3 mph SSE6.9 kmh SSE 6.9 mph11.1 kmh 30.19 in1022.4 mb 0.00 in0.0 mm 0.00 in/hr0.0 mm/hr 0.00 in0.0 mm
12:45 PM 29.3°F-1.5°C 23.3°F-4.8°C 78% 2.8 mph SW4.5 kmh SW 6.0 mph9.7 kmh 30.19 in1022.4 mb 0.00 in0.0 mm 0.00 in/hr0.0 mm/hr 0.00 in0.0 mm
12:30 PM 28.9°F-1.7°C 24.1°F-4.4°C 82% 3.3 mph NNE5.3 kmh NNE 7.6 mph12.2 kmh 30.19 in1022.4 mb 0.00 in0.0 mm 0.00 in/hr0.0 mm/hr 0.00 in0.0 mm
12:15 PM 28.7°F-1.8°C 24.5°F-4.2°C 84% 2.9 mph S4.7 kmh S 5.4 mph8.7 kmh 30.19 in1022.4 mb 0.00 in0.0 mm 0.00 in/hr0.0 mm/hr 0.00 in0.0 mm
12:00 PM 28.6°F-1.9°C 25.2°F-3.8°C 87% 3.3 mph SSE5.3 kmh SSE 9.2 mph14.8 kmh 30.19 in1022.4 mb 0.00 in0.0 mm 0.00 in/hr0.0 mm/hr 0.00 in0.0 mm
11:45 AM 28.4°F-2.0°C 25.8°F-3.4°C 90% 2.3 mph S3.7 kmh S 4.5 mph7.2 kmh 30.19 in1022.4 mb 0.00 in0.0 mm 0.00 in/hr0.0 mm/hr 0.00 in0.0 mm
11:30 AM 28.0°F-2.2°C 25.8°F-3.4°C 91% 3.0 mph S4.8 kmh S 4.5 mph7.2 kmh 30.20 in1022.7 mb 0.00 in0.0 mm 0.00 in/hr0.0 mm/hr 0.00 in0.0 mm
11:15 AM 27.8°F-2.3°C 25.8°F-3.4°C 92% 2.6 mph S4.2 kmh S 3.8 mph6.1 kmh 30.20 in1022.7 mb 0.00 in0.0 mm 0.00 in/hr0.0 mm/hr 0.00 in0.0 mm
11:00 AM 27.7°F-2.4°C 25.7°F-3.5°C 92% 2.7 mph SSW4.3 kmh SSW 3.8 mph6.1 kmh 30.20 in1022.7 mb 0.00 in0.0 mm 0.00 in/hr0.0 mm/hr 0.00 in0.0 mm
10:45 AM 27.3°F-2.6°C 25.3°F-3.7°C 92% 3.3 mph S5.3 kmh S 4.5 mph7.2 kmh 30.21 in1023.0 mb 0.00 in0.0 mm 0.00 in/hr0.0 mm/hr 0.00 in0.0 mm
10:30 AM 27.1°F-2.7°C 25.1°F-3.8°C 92% 3.2 mph WSW5.1 kmh WSW 4.5 mph7.2 kmh 30.21 in1023.0 mb 0.00 in0.0 mm 0.00 in/hr0.0 mm/hr 0.00 in0.0 mm
10:15 AM 27.3°F-2.6°C 25.6°F-3.6°C 93% 2.5 mph SW4.0 kmh SW 4.5 mph7.2 kmh 30.21 in1023.0 mb 0.00 in0.0 mm 0.00 in/hr0.0 mm/hr 0.00 in0.0 mm
10:00 AM 27.1°F-2.7°C 25.4°F-3.7°C 93% 1.4 mph WNW2.3 kmh WNW 2.2 mph3.5 kmh 30.20 in1022.7 mb 0.00 in0.0 mm 0.00 in/hr0.0 mm/hr 0.00 in0.0 mm
09:45 AM 26.6°F-3.0°C 24.9°F-3.9°C 93% 3.2 mph S5.1 kmh S 4.5 mph7.2 kmh 30.20 in1022.7 mb 0.00 in0.0 mm 0.00 in/hr0.0 mm/hr 0.00 in0.0 mm
09:30 AM 26.8°F-2.9°C 25.0°F-3.9°C 93% 3.0 mph S4.8 kmh S 4.5 mph7.2 kmh 30.20 in1022.7 mb 0.00 in0.0 mm 0.00 in/hr0.0 mm/hr 0.00 in0.0 mm
09:15 AM 26.4°F-3.1°C 24.4°F-4.2°C 92% 2.7 mph NW4.3 kmh NW 3.8 mph6.1 kmh 30.21 in1023.0 mb 0.00 in0.0 mm 0.00 in/hr0.0 mm/hr 0.00 in0.0 mm
09:00 AM 26.6°F-3.0°C 24.6°F-4.1°C 92% 1.8 mph SSE2.9 kmh SSE 3.8 mph6.1 kmh 30.20 in1022.7 mb 0.00 in0.0 mm 0.00 in/hr0.0 mm/hr 0.00 in0.0 mm
08:45 AM 26.2°F-3.2°C 24.2°F-4.3°C 92% 2.3 mph SSE3.7 kmh SSE 4.5 mph7.2 kmh 30.20 in1022.7 mb 0.00 in0.0 mm 0.00 in/hr0.0 mm/hr 0.00 in0.0 mm
08:30 AM 26.0°F-3.3°C 23.8°F-4.6°C 91% 3.3 mph S5.3 kmh S 6.9 mph11.1 kmh 30.20 in1022.7 mb 0.00 in0.0 mm 0.00 in/hr0.0 mm/hr 0.00 in0.0 mm
08:15 AM 26.0°F-3.3°C 23.8°F-4.6°C 91% 2.1 mph SSE3.4 kmh SSE 3.1 mph5.0 kmh 30.19 in1022.4 mb 0.00 in0.0 mm 0.00 in/hr0.0 mm/hr 0.00 in0.0 mm
08:00 AM 26.0°F-3.3°C 23.5°F-4.7°C 90% 2.6 mph W4.2 kmh W 4.5 mph7.2 kmh 30.19 in1022.4 mb 0.00 in0.0 mm 0.00 in/hr0.0 mm/hr 0.00 in0.0 mm
07:45 AM 26.0°F-3.3°C 23.5°F-4.7°C 90% 2.8 mph SSW4.5 kmh SSW 5.4 mph8.7 kmh 30.19 in1022.4 mb 0.00 in0.0 mm 0.00 in/hr0.0 mm/hr 0.00 in0.0 mm
07:30 AM 25.9°F-3.4°C 23.1°F-4.9°C 89% 3.6 mph S5.8 kmh S 5.4 mph8.7 kmh 30.18 in1022.0 mb 0.00 in0.0 mm 0.00 in/hr0.0 mm/hr 0.00 in0.0 mm
07:15 AM 25.9°F-3.4°C 22.8°F-5.1°C 88% 3.8 mph S6.1 kmh S 6.0 mph9.7 kmh 30.18 in1022.0 mb 0.00 in0.0 mm 0.00 in/hr0.0 mm/hr 0.00 in0.0 mm
07:00 AM 26.0°F-3.3°C 22.7°F-5.2°C 87% 2.6 mph WNW4.2 kmh WNW 3.8 mph6.1 kmh 30.18 in1022.0 mb 0.00 in0.0 mm 0.00 in/hr0.0 mm/hr 0.00 in0.0 mm
06:45 AM 25.9°F-3.4°C 22.6°F-5.2°C 87% 2.4 mph S3.9 kmh S 3.8 mph6.1 kmh 30.16 in1021.3 mb 0.00 in0.0 mm 0.00 in/hr0.0 mm/hr 0.00 in0.0 mm
06:30 AM 25.9°F-3.4°C 22.3°F-5.4°C 86% 2.5 mph WSW4.0 kmh WSW 5.4 mph8.7 kmh 30.16 in1021.3 mb 0.00 in0.0 mm 0.00 in/hr0.0 mm/hr 0.00 in0.0 mm
06:15 AM 25.7°F-3.5°C 22.1°F-5.5°C 86% 2.6 mph S4.2 kmh S 3.8 mph6.1 kmh 30.15 in1021.0 mb 0.00 in0.0 mm 0.00 in/hr0.0 mm/hr 0.00 in0.0 mm
06:00 AM 25.7°F-3.5°C 22.1°F-5.5°C 86% 2.9 mph S4.7 kmh S 4.5 mph7.2 kmh 30.15 in1021.0 mb 0.00 in0.0 mm 0.00 in/hr0.0 mm/hr 0.00 in0.0 mm
05:45 AM 25.7°F-3.5°C 21.8°F-5.7°C 85% 4.5 mph SW7.2 kmh SW 6.0 mph9.7 kmh 30.15 in1021.0 mb 0.00 in0.0 mm 0.00 in/hr0.0 mm/hr 0.00 in0.0 mm
05:30 AM 25.7°F-3.5°C 21.5°F-5.8°C 84% 3.4 mph WSW5.5 kmh WSW 6.9 mph11.1 kmh 30.15 in1021.0 mb 0.00 in0.0 mm 0.00 in/hr0.0 mm/hr 0.00 in0.0 mm
05:15 AM 25.9°F-3.4°C 21.4°F-5.9°C 83% 4.1 mph W6.6 kmh W 6.9 mph11.1 kmh 30.15 in1021.0 mb 0.00 in0.0 mm 0.00 in/hr0.0 mm/hr 0.00 in0.0 mm
05:00 AM 26.0°F-3.3°C 21.6°F-5.8°C 83% 2.3 mph SW3.7 kmh SW 6.9 mph11.1 kmh 30.15 in1021.0 mb 0.00 in0.0 mm 0.00 in/hr0.0 mm/hr 0.00 in0.0 mm
04:45 AM 25.9°F-3.4°C 21.4°F-5.9°C 83% 2.7 mph W4.3 kmh W 3.1 mph5.0 kmh 30.15 in1021.0 mb 0.00 in0.0 mm 0.00 in/hr0.0 mm/hr 0.00 in0.0 mm
04:30 AM 25.9°F-3.4°C 21.4°F-5.9°C 83% 2.7 mph SSW4.3 kmh SSW 4.5 mph7.2 kmh 30.14 in1020.7 mb 0.00 in0.0 mm 0.00 in/hr0.0 mm/hr 0.00 in0.0 mm
04:15 AM 25.7°F-3.5°C 21.0°F-6.1°C 82% 3.3 mph S5.3 kmh S 6.0 mph9.7 kmh 30.15 in1021.0 mb 0.00 in0.0 mm 0.00 in/hr0.0 mm/hr 0.00 in0.0 mm
04:00 AM 25.7°F-3.5°C 20.7°F-6.3°C 81% 3.1 mph WSW5.0 kmh WSW 5.4 mph8.7 kmh 30.15 in1021.0 mb 0.00 in0.0 mm 0.00 in/hr0.0 mm/hr 0.00 in0.0 mm
03:45 AM 25.7°F-3.5°C 20.7°F-6.3°C 81% 4.6 mph WNW7.4 kmh WNW 7.6 mph12.2 kmh 30.15 in1021.0 mb 0.00 in0.0 mm 0.00 in/hr0.0 mm/hr 0.00 in0.0 mm
03:30 AM 25.7°F-3.5°C 20.4°F-6.4°C 80% 3.1 mph S5.0 kmh S 5.4 mph8.7 kmh 30.15 in1021.0 mb 0.00 in0.0 mm 0.00 in/hr0.0 mm/hr 0.00 in0.0 mm
03:15 AM 25.7°F-3.5°C 20.1°F-6.6°C 79% 4.1 mph SW6.6 kmh SW 5.4 mph8.7 kmh 30.15 in1021.0 mb 0.00 in0.0 mm 0.00 in/hr0.0 mm/hr 0.00 in0.0 mm
03:00 AM 25.7°F-3.5°C 19.8°F-6.8°C 78% 3.1 mph S5.0 kmh S 4.5 mph7.2 kmh 30.15 in1021.0 mb 0.00 in0.0 mm 0.00 in/hr0.0 mm/hr 0.00 in0.0 mm
02:45 AM 26.0°F-3.3°C 19.9°F-6.7°C 77% 2.1 mph SE3.4 kmh SE 5.4 mph8.7 kmh 30.15 in1021.0 mb 0.00 in0.0 mm 0.00 in/hr0.0 mm/hr 0.00 in0.0 mm
02:30 AM 25.9°F-3.4°C 19.4°F-7.0°C 76% 2.3 mph SW3.7 kmh SW 3.8 mph6.1 kmh 30.15 in1021.0 mb 0.00 in0.0 mm 0.00 in/hr0.0 mm/hr 0.00 in0.0 mm
02:15 AM 25.7°F-3.5°C 19.2°F-7.1°C 76% 3.5 mph W5.6 kmh W 6.9 mph11.1 kmh 30.15 in1021.0 mb 0.00 in0.0 mm 0.00 in/hr0.0 mm/hr 0.00 in0.0 mm
02:00 AM 25.9°F-3.4°C 18.8°F-7.3°C 74% 5.2 mph S8.4 kmh S 7.6 mph12.2 kmh 30.14 in1020.7 mb 0.00 in0.0 mm 0.00 in/hr0.0 mm/hr 0.00 in0.0 mm
01:45 AM 25.9°F-3.4°C 18.8°F-7.3°C 74% 3.9 mph WSW6.3 kmh WSW 6.9 mph11.1 kmh 30.15 in1021.0 mb 0.00 in0.0 mm 0.00 in/hr0.0 mm/hr 0.00 in0.0 mm
01:30 AM 25.9°F-3.4°C 18.8°F-7.3°C 74% 3.8 mph SSW6.1 kmh SSW 7.6 mph12.2 kmh 30.14 in1020.7 mb 0.00 in0.0 mm 0.00 in/hr0.0 mm/hr 0.00 in0.0 mm
01:15 AM 25.9°F-3.4°C 18.8°F-7.3°C 74% 4.3 mph SSW6.9 kmh SSW 6.9 mph11.1 kmh 30.14 in1020.7 mb 0.00 in0.0 mm 0.00 in/hr0.0 mm/hr 0.00 in0.0 mm
01:00 AM 26.0°F-3.3°C 18.9°F-7.3°C 74% 3.5 mph SSW5.6 kmh SSW 6.0 mph9.7 kmh 30.14 in1020.7 mb 0.00 in0.0 mm 0.00 in/hr0.0 mm/hr 0.00 in0.0 mm
12:45 AM 25.9°F-3.4°C 18.8°F-7.3°C 74% 2.8 mph SSW4.5 kmh SSW 4.5 mph7.2 kmh 30.14 in1020.7 mb 0.00 in0.0 mm 0.00 in/hr0.0 mm/hr 0.00 in0.0 mm
12:30 AM 25.9°F-3.4°C 18.8°F-7.3°C 74% 4.2 mph WSW6.8 kmh WSW 7.6 mph12.2 kmh 30.14 in1020.7 mb 0.00 in0.0 mm 0.00 in/hr0.0 mm/hr 0.00 in0.0 mm
12:15 AM 25.9°F-3.4°C 18.4°F-7.6°C 73% 4.1 mph WSW6.6 kmh WSW 7.6 mph12.2 kmh 30.14 in1020.7 mb 0.00 in0.0 mm 0.00 in/hr0.0 mm/hr 0.00 in0.0 mm
12:00 AM 25.9°F-3.4°C 18.1°F-7.7°C 72% 6.9 mph SSW11.1 kmh SSW 11.4 mph18.3 kmh 30.14 in1020.7 mb 0.00 in0.0 mm 0.00 in/hr0.0 mm/hr 0.00 in0.0 mm